createdAt,value
2018-01-23T00:00:08.076Z,20.07
2018-01-23T00:02:37.121Z,18.53
2018-01-23T00:05:07.201Z,19.70
2018-01-23T00:07:42.237Z,19.00
2018-01-23T00:10:19.954Z,20.07
2018-01-23T00:12:52.842Z,19.90
2018-01-23T00:15:20.949Z,20.57
2018-01-23T00:17:55.662Z,17.83
2018-01-23T00:20:24.716Z,19.20
2018-01-23T00:22:53.797Z,22.57
2018-01-23T00:25:22.830Z,19.83
2018-01-23T00:27:57.474Z,20.83
2018-01-23T00:30:29.505Z,20.23
2018-01-23T00:32:58.539Z,19.30
2018-01-23T00:35:29.995Z,21.73
2018-01-23T00:37:58.989Z,20.90
2018-01-23T00:40:32.501Z,21.67
2018-01-23T00:43:17.637Z,19.30
2018-01-23T00:48:50.331Z,20.80
2018-01-23T00:51:18.436Z,19.67
2018-01-23T00:54:00.068Z,18.23
2018-01-23T00:56:29.631Z,20.03
2018-01-23T00:59:01.186Z,20.57
2018-01-23T01:01:30.183Z,22.40
2018-01-23T01:03:59.189Z,21.50
2018-01-23T01:06:29.220Z,21.70
2018-01-23T01:09:02.121Z,23.53
2018-01-23T01:11:32.186Z,21.93
2018-01-23T01:14:00.281Z,21.27
2018-01-23T01:16:28.382Z,21.80
2018-01-23T01:19:04.574Z,22.07
2018-01-23T01:21:36.632Z,21.87
2018-01-23T01:24:26.033Z,22.10
2018-01-23T01:26:56.093Z,20.03
2018-01-23T01:29:25.201Z,19.37
2018-01-23T01:31:54.325Z,21.77
2018-01-23T01:34:22.421Z,20.53
2018-01-23T01:36:51.490Z,21.27
2018-01-23T01:39:25.518Z,19.03
2018-01-23T01:41:53.615Z,17.27
2018-01-23T01:44:21.724Z,17.97
2018-01-23T01:46:57.314Z,17.97
2018-01-23T01:49:27.177Z,18.17
2018-01-23T01:51:59.057Z,17.80
2018-01-23T01:54:38.444Z,18.90
2018-01-23T01:57:07.517Z,19.77
2018-01-23T02:02:36.446Z,19.00
2018-01-23T02:05:08.325Z,19.20
2018-01-23T02:07:38.356Z,20.97
2018-01-23T02:10:08.369Z,20.93
2018-01-23T02:12:36.513Z,18.87
2018-01-23T02:15:06.360Z,18.23
2018-01-23T02:20:34.835Z,21.00
2018-01-23T02:23:22.608Z,19.53
2018-01-23T02:25:51.468Z,19.40
2018-01-23T02:28:19.599Z,19.90
2018-01-23T02:33:51.026Z,20.13
2018-01-23T02:36:26.661Z,19.37
2018-01-23T02:38:55.532Z,21.30
2018-01-23T02:41:25.621Z,19.97
2018-01-23T02:44:00.370Z,18.13
2018-01-23T02:46:28.464Z,19.43
2018-01-23T02:48:56.600Z,18.17
2018-01-23T02:51:25.648Z,19.70
2018-01-23T02:56:55.732Z,20.80
2018-01-23T02:59:23.838Z,19.60
2018-01-23T03:01:52.893Z,19.90
2018-01-23T03:04:21.012Z,20.40
2018-01-23T03:06:56.136Z,19.90
2018-01-23T03:09:42.588Z,19.87
2018-01-23T03:12:12.670Z,19.90
2018-01-23T03:14:41.692Z,18.43
2018-01-23T03:17:14.368Z,19.17
2018-01-23T03:19:42.489Z,19.50
2018-01-23T03:22:10.584Z,18.83
2018-01-23T03:24:39.684Z,19.43
2018-01-23T03:27:24.587Z,18.00
2018-01-23T03:32:59.577Z,16.73
2018-01-23T03:35:34.648Z,19.10
2018-01-23T03:38:08.172Z,18.43
2018-01-23T03:40:36.273Z,19.37
2018-01-23T03:43:05.368Z,19.37
2018-01-23T03:45:33.476Z,18.90
2018-01-23T03:50:55.397Z,20.03
2018-01-23T03:53:23.484Z,20.63
2018-01-23T03:55:55.690Z,19.13
2018-01-23T03:58:27.357Z,20.20
2018-01-23T04:00:57.427Z,19.60
2018-01-23T04:03:26.835Z,18.87
2018-01-23T04:05:59.692Z,16.83
2018-01-23T04:08:28.529Z,17.70
2018-01-23T04:10:56.674Z,16.27
2018-01-23T04:13:25.689Z,18.03
2018-01-23T04:15:54.797Z,18.60
2018-01-23T04:18:22.893Z,17.33
2018-01-23T04:20:56.097Z,17.67
2018-01-23T04:23:25.206Z,18.50
2018-01-23T04:26:01.253Z,17.13
2018-01-23T04:28:37.939Z,17.17
2018-01-23T04:31:06.955Z,17.17
2018-01-23T04:33:36.984Z,18.70
2018-01-23T04:36:07.009Z,16.77
2018-01-23T04:38:37.079Z,17.00
2018-01-23T04:41:28.431Z,17.80
2018-01-23T04:44:02.565Z,16.67
2018-01-23T04:46:30.694Z,16.13
2018-01-23T04:48:59.782Z,18.47
2018-01-23T04:51:28.785Z,18.30
2018-01-23T04:53:57.081Z,19.70
2018-01-23T04:56:25.264Z,18.57
2018-01-23T04:58:57.440Z,19.07
2018-01-23T05:01:25.547Z,18.67
2018-01-23T05:03:53.635Z,18.43
2018-01-23T05:06:22.760Z,19.50
2018-01-23T05:08:50.943Z,18.17
2018-01-23T05:11:24.342Z,19.40
2018-01-23T05:13:55.943Z,18.00
2018-01-23T05:16:24.988Z,18.50
2018-01-23T05:18:58.295Z,18.83
2018-01-23T05:21:45.842Z,17.63
2018-01-23T05:24:13.953Z,19.60
2018-01-23T05:26:42.041Z,18.67
2018-01-23T05:29:17.748Z,19.97
2018-01-23T05:31:49.726Z,18.10
2018-01-23T05:34:19.414Z,19.90
2018-01-23T05:36:47.905Z,18.10
2018-01-23T05:39:16.001Z,18.27
2018-01-23T05:41:58.093Z,18.03
2018-01-23T05:44:31.380Z,19.17
2018-01-23T05:50:01.469Z,18.67
2018-01-23T05:52:30.545Z,18.03
2018-01-23T05:55:09.441Z,18.37
2018-01-23T05:57:40.229Z,18.57
2018-01-23T06:00:08.683Z,17.30
2018-01-23T06:02:39.489Z,19.13
2018-01-23T06:05:08.576Z,17.80
2018-01-23T06:07:36.720Z,18.07
2018-01-23T06:10:19.000Z,18.97
2018-01-23T06:12:50.064Z,20.90
2018-01-23T06:15:18.183Z,19.40
2018-01-23T06:17:46.300Z,19.20
2018-01-23T06:20:15.398Z,19.53
2018-01-23T06:22:44.430Z,19.03
2018-01-23T06:25:20.650Z,18.10
2018-01-23T06:27:49.581Z,17.33
2018-01-23T06:30:23.216Z,18.10
2018-01-23T06:32:52.358Z,17.80
2018-01-23T06:35:27.359Z,18.00
2018-01-23T06:37:57.435Z,18.10
2018-01-23T06:40:31.840Z,17.57
2018-01-23T06:43:01.846Z,18.50
2018-01-23T06:45:30.882Z,18.23
2018-01-23T06:48:00.885Z,18.90
2018-01-23T06:50:29.078Z,19.80
2018-01-23T06:52:57.221Z,17.80
2018-01-23T06:55:26.336Z,18.43
2018-01-23T06:57:54.442Z,17.03
2018-01-23T07:00:22.612Z,17.47
2018-01-23T07:02:50.752Z,18.63
2018-01-23T07:05:18.865Z,17.47
2018-01-23T07:07:47.946Z,17.60
2018-01-23T07:10:17.775Z,18.10
2018-01-23T07:12:45.962Z,18.03
2018-01-23T07:15:14.129Z,16.87
2018-01-23T07:17:42.246Z,17.97
2018-01-23T07:20:12.147Z,17.77
2018-01-23T07:22:40.249Z,17.00
2018-01-23T07:25:09.065Z,17.90
2018-01-23T07:27:38.955Z,16.47
2018-01-23T07:30:08.968Z,17.80
2018-01-23T07:32:37.090Z,18.07
2018-01-23T07:35:05.185Z,16.97
2018-01-23T07:37:37.819Z,16.23
2018-01-23T07:40:06.046Z,16.90
2018-01-23T07:42:34.195Z,17.37
2018-01-23T07:45:02.336Z,17.57
2018-01-23T07:47:31.523Z,17.53
2018-01-23T07:50:01.061Z,15.30
2018-01-23T07:52:31.185Z,17.47
2018-01-23T07:55:01.264Z,18.47
2018-01-23T07:57:29.382Z,18.37
2018-01-23T08:00:10.210Z,17.60
2018-01-23T08:02:38.342Z,18.10
2018-01-23T08:05:08.533Z,19.80
2018-01-23T08:07:40.370Z,17.23
2018-01-23T08:10:08.476Z,17.47
2018-01-23T08:12:36.618Z,17.70
2018-01-23T08:15:05.696Z,16.30
2018-01-23T08:17:34.118Z,15.53
2018-01-23T08:20:04.235Z,16.20
2018-01-23T08:22:33.419Z,15.03
2018-01-23T08:25:02.641Z,16.97
2018-01-23T08:27:30.834Z,17.80
2018-01-23T08:29:59.887Z,17.63
2018-01-23T08:32:31.056Z,16.93
2018-01-23T08:34:59.942Z,15.50
2018-01-23T08:37:28.855Z,15.93
2018-01-23T08:40:05.105Z,17.30
2018-01-23T08:42:34.290Z,16.43
2018-01-23T08:45:06.158Z,15.83
2018-01-23T08:47:34.853Z,16.03
2018-01-23T08:50:03.881Z,16.10
2018-01-23T08:52:31.997Z,15.13
2018-01-23T08:55:01.886Z,16.00
2018-01-23T08:57:30.061Z,15.07
2018-01-23T08:59:58.218Z,15.70
2018-01-23T09:02:26.325Z,16.77
2018-01-23T09:04:55.512Z,16.40
2018-01-23T09:07:23.670Z,15.50
2018-01-23T09:09:57.799Z,16.10
2018-01-23T09:12:28.631Z,17.30
2018-01-23T09:14:57.538Z,16.03
2018-01-23T09:17:25.639Z,17.07
2018-01-23T09:19:53.844Z,19.80
2018-01-23T09:22:21.957Z,18.57
2018-01-23T09:24:50.956Z,18.23
2018-01-23T09:27:19.126Z,16.13
2018-01-23T09:29:48.261Z,18.23
2018-01-23T09:32:19.409Z,18.27
2018-01-23T09:34:48.600Z,16.93
2018-01-23T09:37:17.642Z,17.27
2018-01-23T09:39:45.769Z,17.57
2018-01-23T09:42:16.570Z,18.03
2018-01-23T09:44:46.637Z,17.60
2018-01-23T09:47:16.758Z,17.07
2018-01-23T09:49:49.336Z,17.00
2018-01-23T09:52:22.922Z,15.83
2018-01-23T09:54:51.237Z,17.00
2018-01-23T09:57:19.377Z,16.23
2018-01-23T09:59:47.536Z,16.67
2018-01-23T10:02:17.517Z,16.37
2018-01-23T10:04:47.564Z,16.20
2018-01-23T10:07:18.804Z,17.13
2018-01-23T10:09:47.770Z,16.80
2018-01-23T10:12:22.115Z,15.87
2018-01-23T10:14:51.413Z,16.43
2018-01-23T10:17:24.072Z,18.23
2018-01-23T10:19:52.189Z,17.07
2018-01-23T10:22:20.305Z,17.93
2018-01-23T10:24:48.415Z,18.37
2018-01-23T10:27:18.517Z,18.57
2018-01-23T10:29:46.850Z,17.00
2018-01-23T10:32:15.944Z,17.60
2018-01-23T10:34:46.040Z,19.70
2018-01-23T10:37:14.248Z,19.33
2018-01-23T10:39:42.438Z,19.47
2018-01-23T10:42:11.456Z,20.30
2018-01-23T10:44:44.082Z,20.90
2018-01-23T10:47:14.129Z,19.83
2018-01-23T10:49:45.126Z,22.30
2018-01-23T10:52:13.243Z,20.17
2018-01-23T10:54:41.341Z,22.90
2018-01-23T10:57:09.494Z,22.40
2018-01-23T10:59:37.638Z,20.07
2018-01-23T11:02:10.621Z,22.43
2018-01-23T11:04:39.692Z,20.53
2018-01-23T11:07:07.808Z,24.07
2018-01-23T11:09:36.682Z,21.20
2018-01-23T11:12:05.730Z,22.87
2018-01-23T11:14:35.820Z,22.63
2018-01-23T11:17:04.721Z,19.67
2018-01-23T11:19:35.527Z,20.60
2018-01-23T11:22:03.712Z,20.80
2018-01-23T11:24:31.882Z,19.13
2018-01-23T11:27:01.944Z,22.47
2018-01-23T11:29:30.064Z,20.93
2018-01-23T11:31:58.282Z,19.03
2018-01-23T11:34:26.394Z,18.80
2018-01-23T11:36:59.201Z,19.90
2018-01-23T11:39:27.436Z,19.87
2018-01-23T11:41:56.205Z,19.57
2018-01-23T11:44:27.341Z,18.70
2018-01-23T11:46:55.630Z,19.30
2018-01-23T11:49:23.769Z,18.53
2018-01-23T11:51:51.900Z,17.37
2018-01-23T11:54:20.050Z,17.93
2018-01-23T11:56:48.269Z,18.03
2018-01-23T11:59:16.439Z,16.80
2018-01-23T12:01:44.796Z,16.10
2018-01-23T12:04:14.834Z,15.83
2018-01-23T12:06:42.945Z,16.60
2018-01-23T12:09:13.337Z,15.23
2018-01-23T12:11:42.473Z,14.53
2018-01-23T12:14:14.057Z,14.60
2018-01-23T12:16:42.887Z,14.83
2018-01-23T12:19:11.014Z,14.30
2018-01-23T12:21:43.213Z,15.00
2018-01-23T12:24:12.305Z,13.13
2018-01-23T12:26:40.445Z,12.97
2018-01-23T12:29:09.492Z,14.50
2018-01-23T12:31:39.884Z,13.53
2018-01-23T12:34:08.457Z,14.20
2018-01-23T12:36:40.881Z,13.30
2018-01-23T12:39:09.989Z,12.93
2018-01-23T12:41:42.165Z,13.30
2018-01-23T12:44:11.208Z,13.00
2018-01-23T12:46:42.340Z,13.40
2018-01-23T12:49:13.874Z,14.17
2018-01-23T12:51:42.043Z,13.37
2018-01-23T12:54:13.058Z,13.43
2018-01-23T12:56:43.143Z,12.80
2018-01-23T12:59:12.282Z,12.90
2018-01-23T13:01:42.134Z,13.57
2018-01-23T13:04:10.319Z,13.90
2018-01-23T13:06:40.377Z,13.30
2018-01-23T13:09:10.467Z,13.67
2018-01-23T13:11:38.602Z,13.87
2018-01-23T13:14:06.686Z,13.57
2018-01-23T13:16:35.831Z,13.43
2018-01-23T13:19:04.809Z,12.97
2018-01-23T13:21:35.050Z,13.70
2018-01-23T13:24:03.174Z,14.10
2018-01-23T13:26:41.813Z,12.77
2018-01-23T13:29:11.857Z,12.80
2018-01-23T13:31:39.965Z,12.93
2018-01-23T13:34:08.146Z,12.27
2018-01-23T13:36:37.259Z,12.73
2018-01-23T13:39:05.396Z,12.30
2018-01-23T13:41:54.070Z,11.57
2018-01-23T13:44:22.148Z,12.20
2018-01-23T13:46:52.236Z,11.70
2018-01-23T13:49:24.207Z,12.23
2018-01-23T13:51:52.320Z,14.37
2018-01-23T13:54:20.449Z,12.97
2018-01-23T13:56:49.714Z,12.33
2018-01-23T13:59:19.497Z,11.40
2018-01-23T14:01:48.610Z,10.70
2018-01-23T14:04:16.737Z,11.33
2018-01-23T14:09:48.493Z,12.53
2018-01-23T14:12:21.992Z,13.77
2018-01-23T14:14:50.164Z,12.77
2018-01-23T14:17:18.401Z,14.40
2018-01-23T14:19:57.577Z,14.33
2018-01-23T14:22:29.617Z,14.13
2018-01-23T14:24:57.716Z,12.57
2018-01-23T14:27:25.884Z,13.93
2018-01-23T14:29:54.979Z,13.10
2018-01-23T14:32:27.460Z,15.50
2018-01-23T14:34:55.614Z,14.73
2018-01-23T14:37:34.126Z,15.07
2018-01-23T14:40:03.905Z,12.60
2018-01-23T14:42:32.017Z,12.37
2018-01-23T14:45:02.854Z,13.00
2018-01-23T14:47:31.926Z,13.13
2018-01-23T14:50:03.209Z,12.80
2018-01-23T14:52:31.288Z,12.43
2018-01-23T14:55:00.361Z,12.30
2018-01-23T14:57:32.436Z,14.97
2018-01-23T15:00:11.828Z,14.27
2018-01-23T15:02:39.942Z,13.07
2018-01-23T15:05:09.125Z,12.90
2018-01-23T15:07:39.217Z,14.53
2018-01-23T15:10:09.797Z,13.70
2018-01-23T15:12:46.113Z,11.90
2018-01-23T15:15:14.853Z,12.33
2018-01-23T15:17:49.681Z,12.80
2018-01-23T15:20:17.975Z,12.50
2018-01-23T15:22:46.099Z,12.20
2018-01-23T15:25:15.091Z,14.77
2018-01-23T15:27:53.270Z,13.50
2018-01-23T15:30:31.682Z,12.00
2018-01-23T15:32:59.837Z,12.00
2018-01-23T15:35:28.854Z,13.60
2018-01-23T15:37:57.363Z,13.80
2018-01-23T15:40:25.448Z,11.93
2018-01-23T15:42:54.488Z,13.93
2018-01-23T15:45:24.581Z,12.30
2018-01-23T15:47:57.810Z,13.00
2018-01-23T15:50:26.957Z,12.67
2018-01-23T15:52:55.084Z,13.47
2018-01-23T15:55:24.991Z,12.20
2018-01-23T15:57:54.077Z,12.77
2018-01-23T16:00:25.296Z,12.53
2018-01-23T16:02:53.543Z,13.17
2018-01-23T16:05:26.773Z,11.50
2018-01-23T16:07:56.154Z,11.63
2018-01-23T16:10:28.381Z,11.80
2018-01-23T16:12:56.647Z,12.10
2018-01-23T16:15:25.774Z,12.57
2018-01-23T16:17:54.183Z,12.60
2018-01-23T16:20:26.357Z,13.17
2018-01-23T16:22:54.510Z,11.10
2018-01-23T16:25:28.196Z,11.47
2018-01-23T16:27:56.771Z,10.70
2018-01-23T16:30:25.881Z,11.63
2018-01-23T16:32:58.589Z,11.37
2018-01-23T16:35:26.705Z,12.20
2018-01-23T16:37:54.834Z,12.80
2018-01-23T16:40:22.983Z,11.23
2018-01-23T16:42:51.103Z,10.90
2018-01-23T16:45:20.246Z,13.00
2018-01-23T16:47:48.419Z,11.10
2018-01-23T16:50:16.907Z,10.93
2018-01-23T16:52:51.409Z,10.73
2018-01-23T16:55:23.382Z,11.03
2018-01-23T16:57:51.552Z,11.00
2018-01-23T17:00:20.910Z,10.07
2018-01-23T17:02:52.481Z,10.70
2018-01-23T17:05:22.644Z,10.43
2018-01-23T17:07:52.790Z,9.90
2018-01-23T17:10:21.845Z,10.97
2018-01-23T17:12:50.000Z,11.10
2018-01-23T17:15:18.318Z,10.17
2018-01-23T17:17:49.862Z,10.93
2018-01-23T17:20:18.046Z,10.20
2018-01-23T17:22:51.946Z,10.47
2018-01-23T17:25:21.032Z,11.07
2018-01-23T17:27:50.361Z,10.50
2018-01-23T17:30:24.450Z,10.87
2018-01-23T17:32:57.230Z,11.40
2018-01-23T17:35:26.399Z,10.40
2018-01-23T17:37:54.654Z,10.97
2018-01-23T17:40:28.220Z,10.20
2018-01-23T17:42:58.243Z,10.40
2018-01-23T17:45:26.350Z,10.37
2018-01-23T17:47:55.465Z,10.47
2018-01-23T17:50:23.564Z,12.00
2018-01-23T17:52:54.397Z,10.20
2018-01-23T17:55:24.939Z,9.27
2018-01-23T17:58:04.771Z,10.43
2018-01-23T18:00:36.065Z,9.50
2018-01-23T18:03:17.892Z,10.00
2018-01-23T18:05:53.695Z,9.20
2018-01-23T18:08:21.822Z,9.27
2018-01-23T18:10:49.972Z,9.10
2018-01-23T18:13:30.212Z,8.80
2018-01-23T18:15:58.540Z,8.20
2018-01-23T18:18:38.442Z,9.20
2018-01-23T18:21:11.762Z,8.70
2018-01-23T18:23:40.959Z,8.20
2018-01-23T18:26:10.506Z,7.87
2018-01-23T18:28:38.918Z,8.40
2018-01-23T18:31:07.983Z,8.10
2018-01-23T18:33:52.673Z,8.20
2018-01-23T18:36:20.820Z,7.90
2018-01-23T18:38:53.853Z,7.43
2018-01-23T18:41:27.956Z,7.90
2018-01-23T18:44:03.481Z,7.83
2018-01-23T18:46:34.865Z,7.47
2018-01-23T18:49:04.135Z,7.57
2018-01-23T18:51:32.742Z,7.10
2018-01-23T18:54:06.573Z,7.70
2018-01-23T18:56:35.221Z,7.17
2018-01-23T18:59:08.965Z,7.50
2018-01-23T19:01:40.154Z,6.77
2018-01-23T19:04:11.330Z,7.77
2018-01-23T19:06:41.377Z,6.80
2018-01-23T19:09:12.108Z,6.53
2018-01-23T19:11:41.170Z,7.17
2018-01-23T19:14:17.822Z,7.20
2018-01-23T19:16:50.893Z,8.50
2018-01-23T19:19:30.839Z,7.50
2018-01-23T19:21:59.386Z,6.80
2018-01-23T19:24:31.867Z,7.53
2018-01-23T19:27:15.181Z,7.70
2018-01-23T19:29:45.062Z,8.50
2018-01-23T19:32:13.161Z,7.53
2018-01-23T19:34:48.005Z,7.97
2018-01-23T19:37:16.483Z,8.00
2018-01-23T19:39:44.579Z,8.17
2018-01-23T19:42:13.998Z,7.50
2018-01-23T19:44:51.812Z,6.80
2018-01-23T19:47:20.282Z,7.90
2018-01-23T19:49:49.841Z,8.17
2018-01-23T19:52:19.993Z,7.17
2018-01-23T19:54:51.976Z,7.10
2018-01-23T19:57:25.433Z,7.33
2018-01-23T19:59:54.527Z,7.77
2018-01-23T20:02:22.652Z,7.73
2018-01-23T20:04:51.614Z,7.80
2018-01-23T20:07:24.413Z,7.57
2018-01-23T20:10:01.175Z,8.67
2018-01-23T20:12:36.321Z,7.80
2018-01-23T20:15:15.583Z,7.50
2018-01-23T20:17:45.629Z,8.33
2018-01-23T20:20:15.728Z,8.40
2018-01-23T20:22:43.860Z,8.50
2018-01-23T20:25:17.880Z,8.40
2018-01-23T20:27:47.222Z,8.70
2018-01-23T20:30:15.349Z,8.87
2018-01-23T20:32:49.289Z,9.10
2018-01-23T20:35:18.326Z,8.47
2018-01-23T20:37:47.389Z,9.07
2018-01-23T20:40:16.516Z,8.23
2018-01-23T20:42:44.631Z,8.00
2018-01-23T20:45:15.181Z,8.47
2018-01-23T20:47:43.273Z,8.10
2018-01-23T20:50:12.311Z,8.33
2018-01-23T20:52:40.470Z,8.97
2018-01-23T20:55:10.328Z,8.37
2018-01-23T20:57:38.433Z,8.30
2018-01-23T21:00:12.405Z,8.00
2018-01-23T21:02:40.885Z,8.13
2018-01-23T21:05:10.971Z,9.00
2018-01-23T21:07:40.082Z,9.63
2018-01-23T21:10:08.245Z,10.50
2018-01-23T21:12:40.101Z,9.70
2018-01-23T21:15:09.107Z,9.17
2018-01-23T21:17:49.045Z,10.87
2018-01-23T21:20:21.157Z,9.00
2018-01-23T21:23:01.322Z,9.00
2018-01-23T21:25:45.854Z,9.83
2018-01-23T21:28:20.560Z,9.50
2018-01-23T21:30:48.767Z,10.20
2018-01-23T21:33:18.881Z,9.87
2018-01-23T21:35:52.660Z,9.67
2018-01-23T21:38:21.732Z,9.77
2018-01-23T21:40:51.617Z,9.80
2018-01-23T21:43:20.723Z,9.83
2018-01-23T21:45:48.832Z,9.27
2018-01-23T21:48:17.041Z,10.60
2018-01-23T21:50:45.162Z,9.90
2018-01-23T21:53:13.270Z,9.80
2018-01-23T21:55:41.497Z,9.63
2018-01-23T21:58:09.616Z,11.40
2018-01-23T22:00:43.260Z,11.27
2018-01-23T22:03:14.688Z,10.90
2018-01-23T22:05:42.818Z,10.87
2018-01-23T22:08:12.063Z,11.00
2018-01-23T22:10:40.204Z,10.40
2018-01-23T22:13:13.449Z,10.63
2018-01-23T22:15:42.350Z,9.90
2018-01-23T22:18:15.661Z,10.33
2018-01-23T22:20:48.928Z,9.83
2018-01-23T22:23:22.098Z,11.87
2018-01-23T22:25:53.757Z,10.23
2018-01-23T22:28:28.216Z,10.30
2018-01-23T22:30:57.948Z,9.90
2018-01-23T22:33:29.851Z,10.20
2018-01-23T22:39:09.754Z,10.60
2018-01-23T22:41:43.561Z,12.00
2018-01-23T22:44:12.038Z,10.53
2018-01-23T22:46:40.162Z,12.87
2018-01-23T22:49:09.192Z,13.03
2018-01-23T22:51:38.368Z,11.27
2018-01-23T22:54:10.189Z,10.97
2018-01-23T22:56:49.392Z,11.80
2018-01-23T22:59:21.428Z,11.63
2018-01-23T23:01:50.542Z,12.00
2018-01-23T23:04:19.606Z,12.10
2018-01-23T23:06:49.662Z,11.77
2018-01-23T23:09:19.769Z,12.43
2018-01-23T23:11:49.820Z,11.83
2018-01-23T23:14:42.449Z,11.67
2018-01-23T23:17:18.816Z,12.57
2018-01-23T23:19:50.714Z,11.03
2018-01-23T23:22:19.771Z,12.43
2018-01-23T23:25:01.037Z,11.17
2018-01-23T23:27:29.168Z,13.50
2018-01-23T23:29:58.961Z,10.93
2018-01-23T23:32:30.712Z,11.10
2018-01-23T23:35:16.825Z,12.07
2018-01-23T23:37:55.608Z,11.20
2018-01-23T23:40:23.711Z,11.50
2018-01-23T23:42:56.445Z,12.17
2018-01-23T23:45:24.550Z,11.60
2018-01-23T23:47:58.600Z,12.10
2018-01-23T23:50:34.372Z,11.03
2018-01-23T23:53:15.001Z,14.27
2018-01-23T23:55:43.198Z,13.37
2018-01-23T23:58:11.307Z,12.13
